KTIF

Thomas County Airport

Thedford, Nebraska, USA
METAR KTIF 160035Z AUTO 00000KT 10SM CLR 03/M01 A3006 RMK AO2 T00301006
Observed Flight Rules
Dec-16 @ 00:35 UTC (41 minutes ago) Visual Flight Rules
Visibility Clouds
10 miles
  • Clear skies
Temperatures Readings
Current 3°C / 37°F
Dewpoint -1°C / 30°F
Humidity 75%
Altimeter 30.06" Hg
Pressure 1018 hPa
Elevation 892
METAR KTIF 160035Z AUTO 00000KT 10SM CLR 03/M01 A3006 RMK AO2 T00301006
Observed Flight Rules
Dec-16 @ 00:35 UTC
(41 minutes ago)
VFR
Clouds
  • Clear skies
Temperature Dewpoint
3°C / 37°F -1°C / 30°F
Humidity Altimeter Pressure
75% 30.06" Hg 1018 hPa